Time;durP1;ratioP1;P1;durP2;ratioP2;P2;SDS_P1;SDS_P2;PMS_P1;PMS_P2;Temp;Humidity;BMP_temperature;BMP_pressure;BME280_temperature;BME280_humidity;BME280_pressure;Samples;Min_cycle;Max_cycle;Signal;HPM_P1;HPM_P2
2022/01/14 00:02:08;;;;;;;42.53;18.70;;;7.20;99.90;;;;;;5078164;28;20060;-79
2022/01/14 00:04:35;;;;;;;42.35;19.65;;;7.20;99.90;;;;;;5094289;28;20052;-79
2022/01/14 00:07:02;;;;;;;41.60;18.50;;;7.20;99.90;;;;;;5095047;28;20052;-80
2022/01/14 00:09:28;;;;;;;45.13;16.75;;;7.30;99.90;;;;;;5094502;28;20069;-80
2022/01/14 00:11:56;;;;;;;41.55;18.38;;;7.40;99.90;;;;;;5094982;28;20048;-79
2022/01/14 00:14:36;;;;;;;39.05;18.35;;;7.30;99.90;;;;;;5094973;28;20127;-79
2022/01/14 00:17:04;;;;;;;38.15;17.25;;;7.30;99.90;;;;;;5080448;28;20135;-80
2022/01/14 00:19:30;;;;;;;37.10;17.15;;;7.30;99.90;;;;;;5094846;28;20105;-80
2022/01/14 00:21:56;;;;;;;39.05;16.05;;;7.40;99.90;;;;;;5094772;28;20137;-79
2022/01/14 00:34:41;;;;;;;42.08;15.35;;;7.50;99.90;;;;;;5094724;28;20058;-79
2022/01/14 00:37:07;;;;;;;36.97;17.67;;;7.40;99.90;;;;;;5094825;28;20168;-79
2022/01/14 00:39:33;;;;;;;33.92;15.77;;;7.40;99.90;;;;;;5094054;28;20048;-80
2022/01/14 00:41:59;;;;;;;44.08;16.25;;;7.30;99.90;;;;;;5094445;28;20113;-79
2022/01/14 00:44:25;;;;;;;30.70;14.95;;;7.40;99.90;;;;;;5094400;28;20131;-79
2022/01/14 00:46:51;;;;;;;40.25;16.63;;;7.40;99.90;;;;;;5094105;28;20055;-80
2022/01/14 00:49:18;;;;;;;36.85;15.65;;;7.50;99.90;;;;;;5094314;28;20048;-79
2022/01/14 00:51:44;;;;;;;33.80;15.77;;;7.50;99.90;;;;;;5094601;28;20078;-80
2022/01/14 00:54:11;;;;;;;34.00;16.02;;;7.50;99.90;;;;;;5076683;28;20068;-79
2022/01/14 00:59:15;;;;;;;38.25;17.33;;;7.40;99.90;;;;;;5094230;28;20056;-79
2022/01/14 01:01:49;;;;;;;37.45;16.45;;;7.40;99.90;;;;;;5093846;28;20048;-79
2022/01/14 01:04:30;;;;;;;44.03;16.95;;;7.30;99.90;;;;;;5094067;28;20079;-79
2022/01/14 01:06:56;;;;;;;45.90;16.35;;;7.40;99.90;;;;;;5093854;28;20055;-79
2022/01/14 01:09:24;;;;;;;32.30;15.80;;;7.50;99.90;;;;;;5093595;28;20040;-79
2022/01/14 01:11:54;;;;;;;47.67;16.30;;;7.50;99.90;;;;;;5093922;28;20051;-79
2022/01/14 01:14:38;;;;;;;39.67;15.20;;;7.40;99.90;;;;;;5076456;28;20486;-79
2022/01/14 01:17:04;;;;;;;42.08;15.38;;;7.30;99.90;;;;;;5094101;28;20059;-79
2022/01/14 01:19:30;;;;;;;45.10;16.55;;;7.40;99.90;;;;;;5093620;28;20040;-79
2022/01/14 01:21:55;;;;;;;34.75;16.20;;;7.30;99.90;;;;;;5076913;28;20051;-79
2022/01/14 01:24:22;;;;;;;45.83;16.50;;;7.30;99.90;;;;;;5060112;28;20391;-79
2022/01/14 01:26:50;;;;;;;39.65;16.80;;;7.30;99.90;;;;;;5093545;28;20047;-79
2022/01/14 01:29:43;;;;;;;43.47;16.80;;;7.30;99.90;;;;;;5076683;28;20139;-79
2022/01/14 01:32:08;;;;;;;44.92;16.35;;;7.30;99.90;;;;;;5092998;28;20055;-79
2022/01/14 01:34:35;;;;;;;40.45;16.02;;;7.30;99.90;;;;;;5076970;28;20054;-79
2022/01/14 01:37:03;;;;;;;41.25;16.58;;;7.30;99.90;;;;;;5076660;28;20086;-79
2022/01/14 01:39:31;;;;;;;46.08;18.65;;;7.30;99.90;;;;;;5093680;28;20051;-79
2022/01/14 01:42:04;;;;;;;38.67;17.60;;;7.40;99.90;;;;;;5093858;28;20534;-79
2022/01/14 01:44:30;;;;;;;47.90;18.52;;;7.40;99.90;;;;;;5094235;28;20105;-79
2022/01/14 01:46:57;;;;;;;50.72;20.60;;;7.50;99.90;;;;;;5093104;28;20491;-79
2022/01/14 01:49:29;;;;;;;52.25;20.80;;;7.40;99.90;;;;;;5093089;28;20088;-79
2022/01/14 01:51:55;;;;;;;53.78;20.80;;;7.50;99.90;;;;;;5094013;28;20422;-79
2022/01/14 01:54:22;;;;;;;56.15;21.52;;;7.60;99.90;;;;;;5092606;28;20048;-79
2022/01/14 01:56:49;;;;;;;49.28;22.58;;;7.50;99.90;;;;;;5093042;28;20055;-79
2022/01/14 01:59:16;;;;;;;50.70;22.83;;;7.40;99.90;;;;;;5076050;28;20040;-79
2022/01/14 02:01:42;;;;;;;52.85;21.63;;;7.30;99.90;;;;;;5092680;28;20051;-79
2022/01/14 02:04:08;;;;;;;52.22;21.27;;;7.40;99.90;;;;;;5092725;28;20048;-79
2022/01/14 02:06:37;;;;;;;51.30;22.17;;;7.50;99.90;;;;;;5076055;28;20085;-79
2022/01/14 02:09:03;;;;;;;54.90;22.60;;;7.50;99.90;;;;;;5092502;28;20055;-79
2022/01/14 02:11:29;;;;;;;49.53;23.48;;;7.50;99.90;;;;;;5075972;28;20062;-79
2022/01/14 02:13:58;;;;;;;53.63;22.35;;;7.40;99.90;;;;;;5092919;28;20052;-79
2022/01/14 02:16:36;;;;;;;52.03;21.83;;;7.40;99.90;;;;;;5092536;28;20059;-79
2022/01/14 02:19:25;;;;;;;59.58;24.10;;;7.30;99.90;;;;;;5093384;28;20464;-79
2022/01/14 02:22:11;;;;;;;55.35;22.65;;;7.20;99.90;;;;;;5075957;28;20051;-79
2022/01/14 02:27:04;;;;;;;57.05;23.23;;;7.20;99.90;;;;;;5095220;28;20181;-79
2022/01/14 02:29:30;;;;;;;48.83;21.77;;;7.30;99.90;;;;;;5096720;28;20532;-79
2022/01/14 02:31:56;;;;;;;49.50;22.40;;;7.30;99.90;;;;;;5096636;28;20076;-79
2022/01/14 02:34:23;;;;;;;55.00;21.52;;;7.40;99.90;;;;;;5096816;28;20050;-79
2022/01/14 02:36:49;;;;;;;64.80;23.88;;;7.30;99.90;;;;;;5096755;28;20048;-79
2022/01/14 02:39:16;;;;;;;55.78;21.67;;;7.30;99.90;;;;;;5096249;28;20043;-79
2022/01/14 02:41:44;;;;;;;51.50;21.55;;;7.20;99.90;;;;;;5096772;28;20058;-79
2022/01/14 02:44:24;;;;;;;59.28;22.95;;;7.20;99.90;;;;;;5096713;28;20402;-79
2022/01/14 02:46:54;;;;;;;54.67;23.52;;;7.30;99.90;;;;;;5096544;28;20044;-79
2022/01/14 02:49:21;;;;;;;50.10;22.50;;;7.30;99.90;;;;;;5079756;28;20052;-79
2022/01/14 02:51:47;;;;;;;51.92;21.67;;;7.40;99.90;;;;;;5079740;28;20078;-79
2022/01/14 02:54:16;;;;;;;56.83;23.27;;;7.40;99.90;;;;;;5096153;28;20059;-79
2022/01/14 02:56:45;;;;;;;54.45;22.85;;;7.50;99.90;;;;;;5063069;28;20086;-79
2022/01/14 02:59:14;;;;;;;51.75;21.17;;;7.50;99.90;;;;;;5096430;28;20094;-79
2022/01/14 03:01:41;;;;;;;43.55;21.05;;;7.40;99.90;;;;;;5096363;28;20110;-79
2022/01/14 03:04:08;;;;;;;43.05;20.20;;;7.60;99.90;;;;;;5096311;28;20048;-79
2022/01/14 03:06:34;;;;;;;47.28;20.98;;;7.70;99.90;;;;;;5096089;28;20056;-79
2022/01/14 03:09:00;;;;;;;41.83;19.30;;;7.80;99.90;;;;;;5078864;28;20134;-79
2022/01/14 03:11:35;;;;;;;48.40;20.60;;;7.90;99.90;;;;;;5079181;28;20050;-79
2022/01/14 03:14:02;;;;;;;50.72;21.80;;;7.90;99.90;;;;;;5097012;28;20052;-79
2022/01/14 03:16:37;;;;;;;44.72;19.60;;;7.80;99.90;;;;;;5096180;28;20044;-80
2022/01/14 03:19:07;;;;;;;48.17;19.85;;;7.80;99.90;;;;;;5080198;28;20047;-80
2022/01/14 03:21:39;;;;;;;60.47;20.80;;;7.90;99.90;;;;;;5096257;28;20063;-79
2022/01/14 03:26:45;;;;;;;40.90;18.98;;;8.00;99.90;;;;;;5096034;28;20059;-79
2022/01/14 03:29:12;;;;;;;49.15;20.55;;;8.00;99.90;;;;;;5095800;28;20492;-79
2022/01/14 03:31:38;;;;;;;50.70;21.05;;;8.10;99.90;;;;;;5095718;28;20098;-79
2022/01/14 03:34:04;;;;;;;48.67;20.98;;;8.10;99.90;;;;;;5096581;28;20083;-79
2022/01/14 03:36:29;;;;;;;46.80;23.08;;;8.00;99.90;;;;;;5095740;28;20047;-79
2022/01/14 03:38:55;;;;;;;48.20;21.40;;;8.10;99.90;;;;;;5078395;28;20399;-79
2022/01/14 03:41:21;;;;;;;52.63;23.15;;;8.00;99.90;;;;;;5096032;28;20054;-79
2022/01/14 03:43:46;;;;;;;48.60;21.52;;;8.00;99.90;;;;;;5095249;28;20072;-79
2022/01/14 03:46:12;;;;;;;53.45;22.55;;;8.00;99.90;;;;;;5095396;28;20044;-79
2022/01/14 03:48:38;;;;;;;55.45;22.48;;;7.80;99.90;;;;;;5078493;28;20134;-79
2022/01/14 03:51:04;;;;;;;47.95;22.25;;;7.70;99.90;;;;;;5095455;28;20399;-79
2022/01/14 03:53:30;;;;;;;47.88;21.92;;;7.80;99.90;;;;;;5095128;28;20131;-79
2022/01/14 03:55:56;;;;;;;51.28;20.33;;;7.80;99.90;;;;;;5095368;28;20056;-79
2022/01/14 03:58:21;;;;;;;47.60;21.67;;;7.80;99.90;;;;;;5095348;28;20059;-79
2022/01/14 04:00:47;;;;;;;50.58;21.88;;;7.80;99.90;;;;;;5095208;28;20486;-79
2022/01/14 04:03:12;;;;;;;58.92;22.75;;;7.80;99.90;;;;;;5095223;28;20051;-79
2022/01/14 04:05:38;;;;;;;60.58;23.83;;;7.70;99.90;;;;;;5078337;28;20051;-79
2022/01/14 04:08:05;;;;;;;54.45;22.70;;;7.60;99.90;;;;;;5077442;28;20044;-79
2022/01/14 04:10:31;;;;;;;56.35;22.23;;;7.70;99.90;;;;;;5078123;28;20471;-79
2022/01/14 04:15:38;;;;;;;51.10;22.05;;;7.70;99.90;;;;;;5094998;28;20509;-79
2022/01/14 04:18:06;;;;;;;54.58;22.95;;;7.70;99.90;;;;;;5112035;28;20048;-79
2022/01/14 04:20:33;;;;;;;56.78;23.15;;;7.60;99.90;;;;;;5094951;28;20044;-79
2022/01/14 04:22:59;;;;;;;51.90;22.02;;;7.60;99.90;;;;;;5094460;28;20054;-79
2022/01/14 04:25:25;;;;;;;53.83;22.33;;;7.50;99.90;;;;;;5094979;28;20040;-79
2022/01/14 04:27:51;;;;;;;54.90;22.02;;;7.50;99.90;;;;;;5094864;28;20384;-79
2022/01/14 04:30:17;;;;;;;53.15;21.98;;;7.60;99.90;;;;;;5077617;28;20048;-79
2022/01/14 04:32:42;;;;;;;57.10;23.27;;;7.60;99.90;;;;;;5094643;28;20130;-79
2022/01/14 04:35:09;;;;;;;51.92;22.02;;;7.50;99.90;;;;;;5094129;28;20044;-79
2022/01/14 04:37:35;;;;;;;50.25;22.25;;;7.60;99.90;;;;;;5077695;28;20135;-79
2022/01/14 04:40:01;;;;;;;48.45;22.30;;;7.60;99.90;;;;;;5077190;28;20101;-79
2022/01/14 04:42:28;;;;;;;50.30;21.77;;;7.70;99.90;;;;;;5061043;28;20090;-79
2022/01/14 04:44:55;;;;;;;51.78;21.48;;;7.70;99.90;;;;;;5078044;28;20451;-79
2022/01/14 04:47:34;;;;;;;51.30;21.35;;;7.60;99.90;;;;;;5094091;28;20411;-79
2022/01/14 04:50:01;;;;;;;51.58;21.88;;;7.50;99.90;;;;;;5094099;28;20372;-79
2022/01/14 04:52:30;;;;;;;59.45;21.02;;;7.40;99.90;;;;;;5094516;28;20059;-79
2022/01/14 04:54:56;;;;;;;52.70;21.00;;;7.30;99.90;;;;;;5077414;28;20048;-79
2022/01/14 04:57:22;;;;;;;50.58;20.52;;;7.30;99.90;;;;;;5094134;28;20475;-79
2022/01/14 04:59:49;;;;;;;49.00;21.95;;;7.40;99.90;;;;;;5094182;28;20471;-79
2022/01/14 05:02:16;;;;;;;51.28;21.38;;;7.40;99.90;;;;;;5077091;28;20044;-79
2022/01/14 05:04:43;;;;;;;57.88;22.15;;;7.30;99.90;;;;;;5093814;28;20048;-79
2022/01/14 05:07:14;;;;;;;50.55;22.10;;;7.30;99.90;;;;;;5076919;28;20127;-79
2022/01/14 05:09:44;;;;;;;50.22;21.23;;;7.20;99.90;;;;;;5060750;28;20387;-79
2022/01/14 05:12:11;;;;;;;53.20;22.13;;;7.20;99.90;;;;;;5093938;28;20054;-79
2022/01/14 05:14:37;;;;;;;44.20;20.83;;;7.20;99.90;;;;;;5093827;28;20052;-79
2022/01/14 05:17:03;;;;;;;51.92;22.25;;;7.10;99.90;;;;;;5094351;28;20152;-79
2022/01/14 05:19:29;;;;;;;59.83;23.13;;;7.10;99.90;;;;;;5093501;28;20540;-79
2022/01/14 05:21:55;;;;;;;50.58;22.73;;;7.00;99.90;;;;;;5077498;28;20044;-79
2022/01/14 05:24:22;;;;;;;59.38;23.15;;;7.20;99.90;;;;;;5093625;28;20126;-79
2022/01/14 05:26:48;;;;;;;61.03;23.33;;;7.20;99.90;;;;;;5093717;28;20040;-79
2022/01/14 05:29:14;;;;;;;56.03;23.85;;;7.20;99.90;;;;;;5093591;28;20533;-79
2022/01/14 05:31:52;;;;;;;54.10;23.40;;;7.30;99.90;;;;;;5093548;28;20079;-79
2022/01/14 05:34:18;;;;;;;54.35;23.30;;;7.20;99.90;;;;;;5093582;28;20461;-79
2022/01/14 05:36:44;;;;;;;55.70;23.60;;;7.40;99.90;;;;;;5093455;28;20048;-79
2022/01/14 05:39:11;;;;;;;53.60;23.77;;;7.50;99.90;;;;;;5092917;28;20050;-79
2022/01/14 05:41:37;;;;;;;57.53;24.67;;;7.50;99.90;;;;;;5076500;28;20048;-79
2022/01/14 05:44:04;;;;;;;52.97;24.20;;;7.40;99.90;;;;;;5093320;28;20407;-79
2022/01/14 05:46:30;;;;;;;60.53;24.38;;;7.40;99.90;;;;;;5093386;28;20044;-79
2022/01/14 05:49:11;;;;;;;54.70;23.83;;;7.40;99.90;;;;;;5093210;28;20051;-79
2022/01/14 05:51:37;;;;;;;61.13;24.33;;;7.40;99.90;;;;;;5093826;28;20052;-79
2022/01/14 05:54:02;;;;;;;57.13;25.50;;;7.60;99.90;;;;;;5109837;28;20060;-79
2022/01/14 05:56:28;;;;;;;61.60;26.88;;;7.40;99.90;;;;;;5093307;28;20048;-79
2022/01/14 05:58:54;;;;;;;60.05;25.23;;;7.40;99.90;;;;;;5093119;28;20051;-79
2022/01/14 06:01:20;;;;;;;59.55;24.73;;;7.30;99.90;;;;;;5058771;28;20052;-79
2022/01/14 06:03:46;;;;;;;59.55;25.42;;;7.40;99.90;;;;;;5076168;28;20127;-79
2022/01/14 06:06:12;;;;;;;62.58;27.33;;;7.40;99.90;;;;;;5076108;28;20225;-79
2022/01/14 06:08:37;;;;;;;57.53;24.92;;;7.60;99.90;;;;;;5075392;28;20093;-79
2022/01/14 06:11:04;;;;;;;61.50;25.85;;;7.60;99.90;;;;;;5092979;28;20044;-79
2022/01/14 06:13:29;;;;;;;58.60;25.90;;;7.70;99.90;;;;;;5092965;28;20123;-79
2022/01/14 06:15:55;;;;;;;61.95;26.02;;;7.70;99.90;;;;;;5092998;28;20078;-79
2022/01/14 06:18:21;;;;;;;54.20;24.00;;;7.70;99.90;;;;;;5092855;28;20502;-79
2022/01/14 06:20:47;;;;;;;67.28;25.77;;;7.70;99.90;;;;;;5093367;28;20044;-79
2022/01/14 06:23:13;;;;;;;54.33;25.60;;;7.80;99.90;;;;;;5093055;28;20052;-79
2022/01/14 06:25:39;;;;;;;59.58;25.92;;;7.80;99.90;;;;;;5092658;28;20051;-79
2022/01/14 06:28:05;;;;;;;56.08;23.88;;;7.80;99.90;;;;;;5092553;28;20044;-79
2022/01/14 06:30:31;;;;;;;57.40;23.80;;;7.70;99.90;;;;;;5092753;28;20055;-79
2022/01/14 06:32:56;;;;;;;56.40;24.92;;;7.70;99.90;;;;;;5092691;28;20399;-79
2022/01/14 06:35:23;;;;;;;52.20;24.20;;;7.80;99.90;;;;;;5092672;28;20044;-79
2022/01/14 06:37:49;;;;;;;51.22;23.00;;;7.70;99.90;;;;;;5075397;28;20048;-79
2022/01/14 06:40:16;;;;;;;50.92;21.92;;;7.60;99.90;;;;;;5092639;28;20040;-79
2022/01/14 06:42:42;;;;;;;46.75;21.35;;;7.60;99.90;;;;;;5092635;28;20095;-79
2022/01/14 06:45:09;;;;;;;45.90;19.60;;;7.60;99.90;;;;;;5092734;28;20136;-79
2022/01/14 06:47:35;;;;;;;51.33;20.80;;;7.70;99.90;;;;;;5092606;28;20461;-79
2022/01/14 06:50:01;;;;;;;47.13;20.33;;;7.80;99.90;;;;;;5092254;28;20087;-79
2022/01/14 06:52:27;;;;;;;44.28;20.35;;;7.80;99.90;;;;;;5091982;28;20063;-79
2022/01/14 06:54:53;;;;;;;45.78;18.92;;;7.80;99.90;;;;;;5076162;28;20052;-79
2022/01/14 06:57:19;;;;;;;50.50;18.17;;;7.80;99.90;;;;;;5092503;28;20097;-79
2022/01/14 06:59:44;;;;;;;49.30;18.92;;;7.80;99.90;;;;;;5092472;28;20105;-79
2022/01/14 07:02:10;;;;;;;45.60;18.33;;;7.70;99.90;;;;;;5092483;28;20421;-79
2022/01/14 07:04:36;;;;;;;43.25;18.83;;;7.80;99.90;;;;;;5075548;28;20051;-79
2022/01/14 07:07:03;;;;;;;49.38;21.27;;;7.80;99.90;;;;;;5092168;28;20483;-79
2022/01/14 07:09:30;;;;;;;51.85;20.00;;;7.70;99.90;;;;;;5091933;28;20082;-79
2022/01/14 07:11:58;;;;;;;46.83;19.85;;;7.70;99.90;;;;;;5092289;28;20173;-79
2022/01/14 07:14:25;;;;;;;46.38;20.25;;;7.80;99.90;;;;;;5096134;28;20574;-79
2022/01/14 07:16:52;;;;;;;39.15;19.40;;;7.80;99.90;;;;;;5096173;28;20048;-79
2022/01/14 07:19:20;;;;;;;44.47;18.98;;;7.80;99.90;;;;;;5096281;28;20125;-79
2022/01/14 07:21:46;;;;;;;42.40;17.33;;;7.70;99.90;;;;;;5095682;28;20123;-79
2022/01/14 07:24:13;;;;;;;50.35;17.13;;;7.70;99.90;;;;;;5095977;28;20609;-79
2022/01/14 07:26:40;;;;;;;40.35;16.52;;;7.70;99.90;;;;;;5096528;28;20122;-79
2022/01/14 07:29:06;;;;;;;39.45;17.13;;;7.70;99.90;;;;;;5079033;28;20074;-79
2022/01/14 07:31:31;;;;;;;35.95;14.95;;;7.80;99.90;;;;;;5095880;28;20050;-79
2022/01/14 07:33:57;;;;;;;39.10;16.27;;;7.80;99.90;;;;;;5095992;28;20051;-79
2022/01/14 07:36:23;;;;;;;43.83;16.88;;;7.80;99.90;;;;;;5095745;28;20048;-79
2022/01/14 07:38:49;;;;;;;43.83;15.45;;;7.80;99.90;;;;;;5078417;28;20567;-79
2022/01/14 07:41:15;;;;;;;39.13;15.60;;;7.90;99.90;;;;;;5078713;28;20506;-79
2022/01/14 07:43:46;;;;;;;39.20;14.52;;;7.90;99.90;;;;;;5129781;27;20387;-79
2022/01/14 07:46:11;;;;;;;33.05;13.60;;;7.80;99.90;;;;;;5062994;28;20048;-79
2022/01/14 07:48:37;;;;;;;41.05;15.13;;;7.80;99.90;;;;;;5095230;28;20101;-79
2022/01/14 07:51:03;;;;;;;30.98;13.07;;;7.90;99.90;;;;;;5095567;28;20080;-79
2022/01/14 07:53:29;;;;;;;32.85;13.18;;;7.90;99.90;;;;;;5077988;28;20048;-79
2022/01/14 07:55:55;;;;;;;38.30;13.65;;;7.80;99.90;;;;;;5078669;28;20056;-79
2022/01/14 07:58:21;;;;;;;38.35;13.57;;;7.80;99.90;;;;;;5095737;28;20048;-79
2022/01/14 08:00:46;;;;;;;35.40;13.60;;;7.90;99.90;;;;;;5095264;28;20178;-79
2022/01/14 08:03:12;;;;;;;32.92;12.63;;;7.90;99.90;;;;;;5095207;28;20492;-79
2022/01/14 08:05:38;;;;;;;36.83;13.43;;;7.90;99.90;;;;;;5095202;28;20040;-79
2022/01/14 08:08:07;;;;;;;37.72;13.57;;;7.90;99.90;;;;;;5077830;28;20048;-79
2022/01/14 08:10:34;;;;;;;33.05;12.38;;;7.90;99.90;;;;;;5096409;28;20052;-79
2022/01/14 08:13:00;;;;;;;38.60;12.88;;;7.90;99.90;;;;;;5094729;28;20495;-79
2022/01/14 08:15:26;;;;;;;34.65;12.27;;;7.90;99.90;;;;;;5078043;28;20052;-79
2022/01/14 08:17:53;;;;;;;36.65;12.73;;;8.00;99.90;;;;;;5094998;28;20059;-79
2022/01/14 08:20:19;;;;;;;33.50;12.70;;;8.00;99.90;;;;;;5062142;28;20051;-79
2022/01/14 08:22:45;;;;;;;29.38;11.68;;;8.10;99.90;;;;;;5095064;28;20044;-79
2022/01/14 08:25:11;;;;;;;27.42;11.25;;;8.10;99.90;;;;;;5094002;28;20048;-79
2022/01/14 08:27:37;;;;;;;34.10;11.65;;;8.10;99.90;;;;;;5094709;28;20471;-78
2022/01/14 08:30:04;;;;;;;34.75;12.85;;;8.00;99.90;;;;;;5094856;28;20044;-79
2022/01/14 08:32:30;;;;;;;29.30;11.10;;;8.00;99.90;;;;;;5077822;28;20059;-79
2022/01/14 08:34:55;;;;;;;29.52;11.18;;;8.10;99.90;;;;;;5094512;28;20052;-79
2022/01/14 08:37:21;;;;;;;22.50;10.23;;;8.10;99.90;;;;;;5094894;28;20048;-79
2022/01/14 08:39:47;;;;;;;35.05;10.82;;;8.00;99.90;;;;;;5094598;28;20495;-79
2022/01/14 08:42:14;;;;;;;28.50;10.50;;;8.00;99.90;;;;;;5094608;28;20479;-79
2022/01/14 08:44:41;;;;;;;28.27;10.38;;;8.00;99.90;;;;;;5077903;28;20052;-79
2022/01/14 08:47:09;;;;;;;30.98;9.95;;;8.00;99.90;;;;;;5096277;28;20051;-78
2022/01/14 08:49:40;;;;;;;22.63;10.00;;;8.10;99.90;;;;;;5097119;28;20048;-78
2022/01/14 08:52:07;;;;;;;27.90;10.27;;;8.00;99.90;;;;;;5079344;28;20483;-79
2022/01/14 08:54:33;;;;;;;26.00;10.23;;;8.00;99.90;;;;;;5094087;28;20056;-79
2022/01/14 08:57:02;;;;;;;28.52;9.25;;;8.00;99.90;;;;;;5094061;28;20052;-79
2022/01/14 08:59:28;;;;;;;26.98;9.00;;;8.00;99.90;;;;;;5094537;28;20062;-78
2022/01/14 09:01:53;;;;;;;36.20;9.77;;;8.00;99.90;;;;;;5077646;28;20056;-79
2022/01/14 09:04:19;;;;;;;25.02;9.70;;;8.00;99.90;;;;;;5077349;28;20047;-79
2022/01/14 09:06:45;;;;;;;23.85;9.23;;;8.00;99.90;;;;;;5094245;28;20043;-79
2022/01/14 09:09:11;;;;;;;35.88;9.50;;;8.00;99.90;;;;;;5093552;28;20047;-79
2022/01/14 09:11:37;;;;;;;20.20;8.07;;;8.00;99.90;;;;;;5094183;28;20387;-79
2022/01/14 09:14:03;;;;;;;24.48;9.02;;;8.10;99.90;;;;;;5094001;28;20040;-79
2022/01/14 09:16:28;;;;;;;26.95;9.05;;;8.20;99.90;;;;;;5093972;28;20112;-79
2022/01/14 09:18:54;;;;;;;29.88;8.73;;;8.20;99.90;;;;;;5077041;28;20554;-79
2022/01/14 09:21:20;;;;;;;27.05;7.93;;;8.20;99.90;;;;;;5093475;28;20044;-79
2022/01/14 09:24:02;;;;;;;34.15;8.70;;;8.30;99.90;;;;;;5076862;28;20071;-79
2022/01/14 09:26:32;;;;;;;20.63;8.00;;;8.40;99.90;;;;;;5094507;28;20047;-72
2022/01/14 09:28:59;;;;;;;30.45;8.48;;;8.40;99.90;;;;;;5093582;28;20089;-75
2022/01/14 09:31:25;;;;;;;29.73;8.55;;;8.40;99.90;;;;;;5093572;28;20056;-76
2022/01/14 09:33:51;;;;;;;30.00;8.00;;;8.40;99.90;;;;;;5099327;28;20044;-76
2022/01/14 09:36:16;;;;;;;22.63;7.65;;;8.50;99.90;;;;;;5098926;28;20048;-74
2022/01/14 09:38:42;;;;;;;24.95;7.03;;;8.40;99.90;;;;;;5096784;28;20040;-74
2022/01/14 09:41:09;;;;;;;22.33;6.55;;;8.50;99.90;;;;;;5093363;28;20051;-72
2022/01/14 09:43:38;;;;;;;21.52;6.50;;;8.50;99.90;;;;;;5075978;28;20052;-74
2022/01/14 09:46:06;;;;;;;25.30;6.18;;;8.50;99.90;;;;;;5094514;28;20091;-74
2022/01/14 09:48:32;;;;;;;22.20;6.85;;;8.60;99.90;;;;;;5092852;28;20052;-73
2022/01/14 09:50:59;;;;;;;19.38;5.70;;;8.60;99.90;;;;;;5094342;28;20070;-74
2022/01/14 09:53:26;;;;;;;22.13;6.22;;;8.60;99.90;;;;;;5092893;28;20056;-74
2022/01/14 09:55:52;;;;;;;16.30;5.07;;;8.50;99.90;;;;;;5093322;28;20127;-74
2022/01/14 09:58:18;;;;;;;16.92;5.57;;;8.60;99.90;;;;;;5093104;28;20048;-73
2022/01/14 10:00:44;;;;;;;17.92;5.18;;;8.50;99.90;;;;;;5093101;28;20089;-74
2022/01/14 10:03:23;;;;;;;19.83;5.47;;;8.50;99.90;;;;;;5094018;28;20044;-73
2022/01/14 10:05:52;;;;;;;17.23;4.50;;;8.50;99.90;;;;;;5094328;28;20056;-74
2022/01/14 10:08:22;;;;;;;16.73;5.03;;;8.50;99.90;;;;;;5092703;28;20052;-73
2022/01/14 10:10:51;;;;;;;15.23;4.13;;;8.50;99.90;;;;;;5076091;28;20081;-73
2022/01/14 10:13:22;;;;;;;22.52;5.40;;;8.50;99.90;;;;;;5093208;28;20113;-74
2022/01/14 10:15:52;;;;;;;18.50;4.20;;;8.50;99.90;;;;;;5093444;28;20056;-73
2022/01/14 10:18:20;;;;;;;20.15;4.72;;;8.60;99.90;;;;;;5076056;28;20055;-73
2022/01/14 10:20:46;;;;;;;19.90;4.60;;;8.70;99.90;;;;;;5092853;28;20052;-74
2022/01/14 10:23:12;;;;;;;25.90;4.20;;;8.70;99.90;;;;;;5093588;28;20102;-73
2022/01/14 10:25:40;;;;;;;20.95;4.13;;;8.60;99.90;;;;;;5076003;28;20135;-73
2022/01/14 10:28:19;;;;;;;25.27;4.18;;;8.70;99.90;;;;;;5092544;28;20129;-73
2022/01/14 10:30:48;;;;;;;20.33;3.88;;;8.70;99.90;;;;;;5076556;28;20048;-73
2022/01/14 10:33:18;;;;;;;20.70;3.72;;;8.70;99.90;;;;;;5092724;28;20524;-73
2022/01/14 10:35:46;;;;;;;15.02;4.07;;;8.80;99.90;;;;;;5093183;28;20067;-73
2022/01/14 10:38:17;;;;;;;16.58;3.85;;;8.80;99.90;;;;;;5092373;28;20058;-74
2022/01/14 10:40:56;;;;;;;20.05;3.53;;;8.80;99.90;;;;;;5093030;28;20054;-73
2022/01/14 10:43:29;;;;;;;21.00;3.90;;;8.90;99.90;;;;;;5092672;28;20101;-73
2022/01/14 10:45:56;;;;;;;28.02;3.67;;;9.00;99.90;;;;;;5094346;28;20051;-75
2022/01/14 10:48:32;;;;;;;13.98;3.33;;;8.90;99.90;;;;;;5095129;28;20052;-75
2022/01/14 10:50:59;;;;;;;;;;;8.80;99.90;;;;;;5097690;28;20048;-83
2022/01/14 10:53:31;;;;;;;18.40;3.20;;;8.70;99.90;;;;;;5095842;28;19920;-83
2022/01/14 10:56:14;;;;;;;17.75;3.70;;;8.50;99.90;;;;;;5096594;28;20055;-83
2022/01/14 10:58:41;;;;;;;13.30;2.95;;;8.60;99.90;;;;;;5096319;28;20055;-84
2022/01/14 11:01:13;;;;;;;10.05;2.83;;;8.50;99.90;;;;;;5079385;28;20048;-83
2022/01/14 11:03:46;;;;;;;18.30;3.03;;;8.70;99.90;;;;;;5080245;28;20044;-84
2022/01/14 11:06:22;;;;;;;19.05;3.10;;;8.70;99.90;;;;;;5096373;28;20127;-82
2022/01/14 11:08:57;;;;;;;11.85;2.92;;;8.90;99.90;;;;;;5078719;28;20066;-84
2022/01/14 11:11:24;;;;;;;18.38;3.13;;;8.90;99.90;;;;;;5079054;28;20051;-84
2022/01/14 11:13:50;;;;;;;17.15;3.45;;;8.90;99.90;;;;;;5096226;28;20052;-81
2022/01/14 11:16:16;;;;;;;18.85;3.63;;;8.90;99.90;;;;;;5096647;28;20044;-84
2022/01/14 11:18:45;;;;;;;11.32;3.05;;;8.80;99.90;;;;;;5079383;28;20048;-79
2022/01/14 11:23:55;;;;;;;18.27;3.75;;;8.90;99.90;;;;;;5097646;28;20051;-75
2022/01/14 11:26:21;;;;;;;16.65;3.42;;;9.00;99.90;;;;;;5096938;28;20048;-76
2022/01/14 11:28:48;;;;;;;17.42;3.75;;;9.10;99.90;;;;;;5095638;28;20407;-76
2022/01/14 11:31:28;;;;;;;18.95;3.60;;;9.10;99.90;;;;;;5079646;28;20646;-81
2022/01/14 11:33:56;;;;;;;13.20;3.60;;;9.10;99.90;;;;;;5095871;28;20048;-79
2022/01/14 11:36:22;;;;;;;12.65;3.28;;;9.20;99.90;;;;;;5095851;28;20040;-83
2022/01/14 11:38:48;;;;;;;14.15;3.38;;;8.90;99.90;;;;;;5061804;28;20044;-83
2022/01/14 11:41:38;;;;;;;19.80;3.60;;;8.70;99.90;;;;;;5095627;28;20055;-83
2022/01/14 11:44:08;;;;;;;14.75;3.53;;;8.50;99.90;;;;;;5094465;28;20530;-80
2022/01/14 11:46:37;;;;;;;22.10;3.60;;;8.50;99.90;;;;;;5079516;28;20059;-84
2022/01/14 11:49:37;;;;;;;17.05;4.13;;;8.40;99.90;;;;;;5129759;27;20051;-82
2022/01/14 11:52:06;;;;;;;21.95;4.38;;;8.50;99.90;;;;;;5095479;28;20123;-71
2022/01/14 11:54:45;;;;;;;19.63;4.15;;;8.80;99.90;;;;;;5094997;28;20060;-71
2022/01/14 11:57:32;;;;;;;20.00;4.40;;;8.90;99.90;;;;;;5096447;28;20044;-71
2022/01/14 11:59:58;;;;;;;20.20;4.20;;;8.90;99.90;;;;;;5093812;28;20048;-72
2022/01/14 12:02:32;;;;;;;23.15;4.82;;;9.00;99.90;;;;;;5096298;28;20052;-73
2022/01/14 12:05:13;;;;;;;24.90;4.55;;;9.10;99.90;;;;;;5094953;28;20551;-72
2022/01/14 12:08:00;;;;;;;22.27;4.28;;;9.10;99.90;;;;;;5094956;28;20472;-73
2022/01/14 12:10:51;;;;;;;17.50;4.45;;;9.20;99.90;;;;;;5094735;28;20071;-71
2022/01/14 12:18:57;;;;;;;19.27;4.63;;;9.00;99.90;;;;;;5095311;28;20135;-71
2022/01/14 12:21:41;;;;;;;29.83;5.28;;;9.10;99.90;;;;;;5078001;28;20147;-72
2022/01/14 12:24:16;;;;;;;23.30;4.70;;;9.10;99.90;;;;;;5094843;28;20101;-71
2022/01/14 12:26:54;;;;;;;27.20;5.13;;;9.10;99.90;;;;;;5078046;28;20399;-72
2022/01/14 12:29:34;;;;;;;20.50;5.95;;;9.00;99.90;;;;;;5095716;28;20537;-71
2022/01/14 12:32:04;;;;;;;30.15;5.30;;;8.90;99.90;;;;;;5095661;28;20395;-72
2022/01/14 12:34:31;;;;;;;25.42;4.93;;;9.00;99.90;;;;;;5095251;28;20386;-81
2022/01/14 12:36:58;;;;;;;19.70;4.22;;;8.80;99.90;;;;;;5113912;28;20117;-82
2022/01/14 12:39:33;;;;;;;21.73;4.93;;;8.90;99.90;;;;;;5097203;28;20052;-87
2022/01/14 12:42:00;;;;;;;20.90;4.75;;;8.80;99.90;;;;;;5095989;28;20046;-88
2022/01/14 12:44:27;;;;;;;25.85;4.75;;;8.70;99.90;;;;;;5080810;28;20138;-90
2022/01/14 12:47:00;;;;;;;19.67;4.57;;;8.70;99.90;;;;;;5080141;28;20036;-88
2022/01/14 12:49:32;;;;;;;19.27;4.13;;;8.70;99.90;;;;;;5094869;28;20040;-83
2022/01/14 12:52:01;;;;;;;22.92;5.40;;;8.70;99.90;;;;;;5094733;28;20040;-83
2022/01/14 12:54:37;;;;;;;22.02;4.25;;;8.60;99.90;;;;;;5093566;28;20052;-82
2022/01/14 12:57:03;;;;;;;25.75;5.15;;;8.50;99.90;;;;;;5128448;27;20099;-84
2022/01/14 12:59:44;;;;;;;21.70;4.65;;;8.50;99.90;;;;;;5094579;28;20391;-88
2022/01/14 13:02:21;;;;;;;23.40;4.60;;;8.50;99.90;;;;;;5094632;28;20040;-85
2022/01/14 13:05:06;;;;;;;22.52;4.30;;;8.50;99.90;;;;;;5077625;28;20411;-83
2022/01/14 13:07:34;;;;;;;19.02;4.50;;;8.50;99.90;;;;;;5093787;28;20048;-92
2022/01/14 13:10:02;;;;;;;30.83;5.13;;;8.50;99.90;;;;;;5098748;28;20047;-94
2022/01/14 13:12:30;;;;;;;22.40;4.53;;;8.40;99.90;;;;;;5083299;28;20048;-92
2022/01/14 13:15:03;;;;;;;24.00;5.20;;;8.20;99.90;;;;;;5095577;28;20039;-86
2022/01/14 13:17:33;;;;;;;24.75;4.80;;;8.20;99.90;;;;;;5093772;28;20116;-79